sensor_id;sensor_type;location;lat;lon;timestamp;pressure;altitude;pressure_sealevel;temperature;humidity
74439;BME280;62869;52.632;29.748;2022-11-06T00:04:13;1033.1;;;3.6;78.9
74439;BME280;62869;52.632;29.748;2022-11-06T00:08:53;1033;;;3.5;79.8
74439;BME280;62869;52.632;29.748;2022-11-06T00:13:53;1033;;;3.7;78.8
74439;BME280;62869;52.632;29.748;2022-11-06T00:19:05;1033;;;3.6;79.3
74439;BME280;62869;52.632;29.748;2022-11-06T00:24:03;1033;;;3.6;80
74439;BME280;62869;52.632;29.748;2022-11-06T00:28:53;1033;;;3.7;80.1
74439;BME280;62869;52.632;29.748;2022-11-06T00:33:53;1033;;;3.7;79.7
74439;BME280;62869;52.632;29.748;2022-11-06T00:39:05;1033;;;3.7;80.3
74439;BME280;62869;52.632;29.748;2022-11-06T00:43:54;1032.9;;;3.8;80.3
74439;BME280;62869;52.632;29.748;2022-11-06T00:48:53;1032.9;;;3.7;80.4
74439;BME280;62869;52.632;29.748;2022-11-06T00:54:11;1032.9;;;3.8;80.5
74439;BME280;62869;52.632;29.748;2022-11-06T00:58:53;1032.8;;;3.8;81
74439;BME280;62869;52.632;29.748;2022-11-06T01:04:15;1032.7;;;3.9;80.8
74439;BME280;62869;52.632;29.748;2022-11-06T01:08:53;1032.6;;;3.9;80.9
74439;BME280;62869;52.632;29.748;2022-11-06T01:13:53;1032.5;;;3.9;81
74439;BME280;62869;52.632;29.748;2022-11-06T01:19:13;1032.5;;;3.9;81.1
74439;BME280;62869;52.632;29.748;2022-11-06T01:23:53;1032.4;;;3.8;81.5
74439;BME280;62869;52.632;29.748;2022-11-06T01:28:57;1032.4;;;3.9;81.1
74439;BME280;62869;52.632;29.748;2022-11-06T01:33:57;1032.4;;;3.8;81.4
74439;BME280;62869;52.632;29.748;2022-11-06T01:39:08;1032.3;;;3.9;82.3
74439;BME280;62869;52.632;29.748;2022-11-06T01:43:57;1032.2;;;3.9;81.7
74439;BME280;62869;52.632;29.748;2022-11-06T01:49:07;1032.2;;;3.9;82.1
74439;BME280;62869;52.632;29.748;2022-11-06T01:53:57;1032.2;;;4;81.9
74439;BME280;62869;52.632;29.748;2022-11-06T01:59:10;1032.2;;;4;82.3
74439;BME280;62869;52.632;29.748;2022-11-06T02:03:59;1032.2;;;4;82.2
74439;BME280;62869;52.632;29.748;2022-11-06T02:09:07;1032.1;;;4;82.3
74439;BME280;62869;52.632;29.748;2022-11-06T02:13:59;1032;;;4;82.1
74439;BME280;62869;52.632;29.748;2022-11-06T02:19:34;1032;;;4;82.4
74439;BME280;62869;52.632;29.748;2022-11-06T02:24:02;1032;;;4.1;82.7
74439;BME280;62869;52.632;29.748;2022-11-06T02:28:58;1032;;;4.1;83
74439;BME280;62869;52.632;29.748;2022-11-06T02:34:04;1032;;;4.2;82.8
74439;BME280;62869;52.632;29.748;2022-11-06T02:39:08;1032.1;;;4.2;82.9
74439;BME280;62869;52.632;29.748;2022-11-06T02:44:14;1032;;;4.3;82.6
74439;BME280;62869;52.632;29.748;2022-11-06T02:49:22;1032;;;4.3;82.4
74439;BME280;62869;52.632;29.748;2022-11-06T02:53:57;1032;;;4.3;82.6
74439;BME280;62869;52.632;29.748;2022-11-06T02:58:57;1032;;;4.3;82.8
74439;BME280;62869;52.632;29.748;2022-11-06T03:03:58;1032;;;4.3;82.1
74439;BME280;62869;52.632;29.748;2022-11-06T03:09:07;1032;;;4.2;82.7
74439;BME280;62869;52.632;29.748;2022-11-06T03:14:07;1032;;;4.3;83.2
74439;BME280;62869;52.632;29.748;2022-11-06T03:18:58;1032.1;;;4.4;82
74439;BME280;62869;52.632;29.748;2022-11-06T03:24:03;1032.1;;;4.3;82.4
74439;BME280;62869;52.632;29.748;2022-11-06T03:28:58;1032.1;;;4.3;83
74439;BME280;62869;52.632;29.748;2022-11-06T03:33:57;1032;;;4.3;83.1
74439;BME280;62869;52.632;29.748;2022-11-06T03:38:57;1031.9;;;4.3;82.8
74439;BME280;62869;52.632;29.748;2022-11-06T03:43:57;1032;;;4.2;83.2
74439;BME280;62869;52.632;29.748;2022-11-06T03:48:57;1032;;;4.2;83.3
74439;BME280;62869;52.632;29.748;2022-11-06T03:54:09;1031.9;;;4.3;84
74439;BME280;62869;52.632;29.748;2022-11-06T03:58:57;1031.9;;;4.4;82.7
74439;BME280;62869;52.632;29.748;2022-11-06T04:03:57;1031.9;;;4.2;82.5
74439;BME280;62869;52.632;29.748;2022-11-06T04:08:58;1031.8;;;4.2;83.8
74439;BME280;62869;52.632;29.748;2022-11-06T04:14:03;1031.8;;;4.3;84.1
74439;BME280;62869;52.632;29.748;2022-11-06T04:18:57;1031.8;;;4.3;83.7
74439;BME280;62869;52.632;29.748;2022-11-06T04:24:08;1031.7;;;4.4;83.6
74439;BME280;62869;52.632;29.748;2022-11-06T04:28:58;1031.7;;;4.4;83.9
74439;BME280;62869;52.632;29.748;2022-11-06T04:34:08;1031.7;;;4.5;83.6
74439;BME280;62869;52.632;29.748;2022-11-06T04:39:17;1031.7;;;4.5;83.9
74439;BME280;62869;52.632;29.748;2022-11-06T04:43:57;1031.7;;;4.5;83.6
74439;BME280;62869;52.632;29.748;2022-11-06T04:49:43;1031.7;;;4.5;83.6
74439;BME280;62869;52.632;29.748;2022-11-06T04:54:09;1031.7;;;4.6;84
74439;BME280;62869;52.632;29.748;2022-11-06T04:58:57;1031.7;;;4.6;83.5
74439;BME280;62869;52.632;29.748;2022-11-06T05:04:03;1031.8;;;4.6;83.7
74439;BME280;62869;52.632;29.748;2022-11-06T05:08:57;1031.8;;;4.6;83.6
74439;BME280;62869;52.632;29.748;2022-11-06T05:14:15;1031.8;;;4.6;84.1
74439;BME280;62869;52.632;29.748;2022-11-06T05:18:57;1031.8;;;4.7;82.5
74439;BME280;62869;52.632;29.748;2022-11-06T05:23:57;1031.8;;;4.6;83.9
74439;BME280;62869;52.632;29.748;2022-11-06T05:29:15;1031.9;;;4.7;84.1
74439;BME280;62869;52.632;29.748;2022-11-06T05:34:07;1031.9;;;4.7;83.9
74439;BME280;62869;52.632;29.748;2022-11-06T05:38:57;1031.9;;;4.7;84.1
74439;BME280;62869;52.632;29.748;2022-11-06T05:43:57;1032;;;4.7;84.3
74439;BME280;62869;52.632;29.748;2022-11-06T05:49:03;1032;;;4.7;84.5
74439;BME280;62869;52.632;29.748;2022-11-06T05:53:57;1032;;;4.8;84.6
74439;BME280;62869;52.632;29.748;2022-11-06T05:59:07;1032;;;4.8;85
74439;BME280;62869;52.632;29.748;2022-11-06T06:03:57;1032;;;4.8;84.7
74439;BME280;62869;52.632;29.748;2022-11-06T06:09:15;1032;;;4.9;84.7
74439;BME280;62869;52.632;29.748;2022-11-06T06:13:57;1032;;;4.9;83.6
74439;BME280;62869;52.632;29.748;2022-11-06T06:18:57;1032;;;4.8;84.9
74439;BME280;62869;52.632;29.748;2022-11-06T06:28:57;1032;;;4.8;84.9
74439;BME280;62869;52.632;29.748;2022-11-06T06:33:57;1032;;;5.1;84.9
74439;BME280;62869;52.632;29.748;2022-11-06T06:38:57;1032.1;;;5.1;84.9
74439;BME280;62869;52.632;29.748;2022-11-06T06:44:29;1032;;;5.2;84.4
74439;BME280;62869;52.632;29.748;2022-11-06T06:48:57;1032;;;5.2;84
74439;BME280;62869;52.632;29.748;2022-11-06T06:54:09;1032;;;5.3;84.2
74439;BME280;62869;52.632;29.748;2022-11-06T06:59:09;1032;;;5.3;83.8
74439;BME280;62869;52.632;29.748;2022-11-06T07:03:57;1032;;;5.3;84
74439;BME280;62869;52.632;29.748;2022-11-06T07:14:15;1031.9;;;5.3;83.8
74439;BME280;62869;52.632;29.748;2022-11-06T07:18:57;1031.9;;;5.3;83.8
74439;BME280;62869;52.632;29.748;2022-11-06T07:29:07;1031.9;;;5.3;83.8
74439;BME280;62869;52.632;29.748;2022-11-06T07:33:57;1031.9;;;5.3;84.6
74439;BME280;62869;52.632;29.748;2022-11-06T07:39:13;1031.9;;;5.3;84.6
74439;BME280;62869;52.632;29.748;2022-11-06T07:44:09;1031.9;;;5.3;84.4
74439;BME280;62869;52.632;29.748;2022-11-06T07:49:19;1031.9;;;5.4;84.4
74439;BME280;62869;52.632;29.748;2022-11-06T07:54:05;1031.9;;;5.3;84.4
74439;BME280;62869;52.632;29.748;2022-11-06T07:59:13;1031.9;;;5.4;85
74439;BME280;62869;52.632;29.748;2022-11-06T08:03:59;1031.9;;;5.5;84.9
74439;BME280;62869;52.632;29.748;2022-11-06T08:08:57;1031.9;;;5.5;84.7
74439;BME280;62869;52.632;29.748;2022-11-06T08:14:09;1031.9;;;5.5;83.5
74439;BME280;62869;52.632;29.748;2022-11-06T08:18:57;1031.9;;;5.4;84.8
74439;BME280;62869;52.632;29.748;2022-11-06T08:23:57;1031.9;;;5.4;84.1
74439;BME280;62869;52.632;29.748;2022-11-06T08:33:57;1032;;;5.7;85.2
74439;BME280;62869;52.632;29.748;2022-11-06T08:48:57;1032;;;6;84.2
74439;BME280;62869;52.632;29.748;2022-11-06T08:54:03;1032.1;;;6;84.3
74439;BME280;62869;52.632;29.748;2022-11-06T08:59:10;1032.1;;;6;84.1
74439;BME280;62869;52.632;29.748;2022-11-06T09:04:21;1032.1;;;6;84.4
74439;BME280;62869;52.632;29.748;2022-11-06T09:08:57;1032.1;;;6;83.9
74439;BME280;62869;52.632;29.748;2022-11-06T09:13:57;1032.1;;;6;85.8
74439;BME280;62869;52.632;29.748;2022-11-06T09:18:57;1032.1;;;6.1;85.7
74439;BME280;62869;52.632;29.748;2022-11-06T09:23:57;1032.1;;;6.1;85.7
74439;BME280;62869;52.632;29.748;2022-11-06T09:29:09;1032.1;;;6.3;85.6
74439;BME280;62869;52.632;29.748;2022-11-06T09:34:17;1032.1;;;6.3;85.6
74439;BME280;62869;52.632;29.748;2022-11-06T09:38:57;1032;;;6.4;85
74439;BME280;62869;52.632;29.748;2022-11-06T09:44:01;1032;;;6.4;85
74439;BME280;62869;52.632;29.748;2022-11-06T09:54:18;1032;;;6.4;85
74439;BME280;62869;52.632;29.748;2022-11-06T09:59:23;1031.9;;;6.7;84
74439;BME280;62869;52.632;29.748;2022-11-06T10:04:03;1032;;;6.6;83.4
74439;BME280;62869;52.632;29.748;2022-11-06T10:54:00;1031.5;;;6.8;84.4
74439;BME280;62869;52.632;29.748;2022-11-06T10:58:57;1031.6;;;6.9;84.4
74439;BME280;62869;52.632;29.748;2022-11-06T11:04:21;1031.5;;;6.8;83
74439;BME280;62869;52.632;29.748;2022-11-06T11:08:57;1031.5;;;6.8;83
74439;BME280;62869;52.632;29.748;2022-11-06T11:14:13;1031.5;;;6.9;84.8
74439;BME280;62869;52.632;29.748;2022-11-06T11:19:05;1031.4;;;6.9;84.5
74439;BME280;62869;52.632;29.748;2022-11-06T11:24:17;1031.3;;;6.9;84.5
74439;BME280;62869;52.632;29.748;2022-11-06T11:28:58;1031.4;;;6.9;84.9
74439;BME280;62869;52.632;29.748;2022-11-06T11:33:58;1031.4;;;6.9;84.9
74439;BME280;62869;52.632;29.748;2022-11-06T11:39:09;1031.2;;;7;84.6
74439;BME280;62869;52.632;29.748;2022-11-06T11:44:03;1031.3;;;7;85
74439;BME280;62869;52.632;29.748;2022-11-06T11:49:31;1031.3;;;7;85.5
74439;BME280;62869;52.632;29.748;2022-11-06T11:54:15;1031.2;;;7.2;85.1
74439;BME280;62869;52.632;29.748;2022-11-06T11:59:11;1031.2;;;7.2;84.5
74439;BME280;62869;52.632;29.748;2022-11-06T12:04:33;1031.3;;;7.2;85.1
74439;BME280;62869;52.632;29.748;2022-11-06T12:08:57;1031.3;;;7.3;85.5
74439;BME280;62869;52.632;29.748;2022-11-06T12:14:30;1031.3;;;7.3;85.1
74439;BME280;62869;52.632;29.748;2022-11-06T12:18:57;1031.2;;;7.3;85.3
74439;BME280;62869;52.632;29.748;2022-11-06T12:24:04;1031.2;;;7.4;84.7
74439;BME280;62869;52.632;29.748;2022-11-06T12:28:58;1031.2;;;7.3;84.3
74439;BME280;62869;52.632;29.748;2022-11-06T12:34:20;1031.2;;;7.3;84.9
74439;BME280;62869;52.632;29.748;2022-11-06T12:38:58;1031.1;;;7.3;85.2
74439;BME280;62869;52.632;29.748;2022-11-06T12:43:57;1031.1;;;7.3;85.3
74439;BME280;62869;52.632;29.748;2022-11-06T12:49:14;1031.1;;;7.3;85.2
74439;BME280;62869;52.632;29.748;2022-11-06T12:54:11;1031.1;;;7.2;85.4
74439;BME280;62869;52.632;29.748;2022-11-06T12:59:00;1031;;;7.3;86.2
74439;BME280;62869;52.632;29.748;2022-11-06T13:04:08;1031;;;7.3;86.2
74439;BME280;62869;52.632;29.748;2022-11-06T13:08:58;1031;;;7.5;85.3
74439;BME280;62869;52.632;29.748;2022-11-06T13:14:11;1031;;;7.4;86
74439;BME280;62869;52.632;29.748;2022-11-06T13:18:58;1031;;;7.5;86.4
74439;BME280;62869;52.632;29.748;2022-11-06T13:23:57;1031.1;;;7.5;86
74439;BME280;62869;52.632;29.748;2022-11-06T13:29:03;1031.1;;;7.5;86
74439;BME280;62869;52.632;29.748;2022-11-06T13:34:23;1031.1;;;7.5;84.7
74439;BME280;62869;52.632;29.748;2022-11-06T13:39:11;1031.1;;;7.5;86.4
74439;BME280;62869;52.632;29.748;2022-11-06T13:44:08;1031.1;;;7.5;86.5
74439;BME280;62869;52.632;29.748;2022-11-06T13:49:00;1031.1;;;7.6;86.4
74439;BME280;62869;52.632;29.748;2022-11-06T13:54:05;1031.1;;;7.6;86.4
74439;BME280;62869;52.632;29.748;2022-11-06T14:08:57;1031.1;;;7.6;86.4
74439;BME280;62869;52.632;29.748;2022-11-06T14:14:10;1031.1;;;7.8;85.9
74439;BME280;62869;52.632;29.748;2022-11-06T14:19:21;1031.1;;;7.8;85.8
74439;BME280;62869;52.632;29.748;2022-11-06T14:24:03;1031.1;;;7.8;86.3
74439;BME280;62869;52.632;29.748;2022-11-06T14:49:36;1031.1;;;7.8;86.3
74439;BME280;62869;52.632;29.748;2022-11-06T14:53:57;1031.1;;;7.8;85.7
74439;BME280;62869;52.632;29.748;2022-11-06T14:58:58;1031.1;;;7.8;86.4
74439;BME280;62869;52.632;29.748;2022-11-06T15:03:57;1031.1;;;7.7;86.3
74439;BME280;62869;52.632;29.748;2022-11-06T15:09:42;1031.1;;;7.7;85.8
74439;BME280;62869;52.632;29.748;2022-11-06T15:14:43;1031.2;;;7.7;86.1
74439;BME280;62869;52.632;29.748;2022-11-06T15:24:10;1031.2;;;7.7;86.1
74439;BME280;62869;52.632;29.748;2022-11-06T15:29:12;1031.2;;;7.7;85.9
74439;BME280;62869;52.632;29.748;2022-11-06T15:34:06;1031.2;;;7.7;85.9
74439;BME280;62869;52.632;29.748;2022-11-06T15:38:57;1031.2;;;7.6;86.8
74439;BME280;62869;52.632;29.748;2022-11-06T15:43:57;1031.2;;;7.7;85.4
74439;BME280;62869;52.632;29.748;2022-11-06T15:49:15;1031.3;;;7.5;86.2
74439;BME280;62869;52.632;29.748;2022-11-06T15:54:11;1031.3;;;7.5;86.6
74439;BME280;62869;52.632;29.748;2022-11-06T15:59:17;1031.3;;;7.5;86.4
74439;BME280;62869;52.632;29.748;2022-11-06T16:03:57;1031.3;;;7.5;86.6
74439;BME280;62869;52.632;29.748;2022-11-06T16:09:03;1031.4;;;7.5;86.6
74439;BME280;62869;52.632;29.748;2022-11-06T16:14:09;1031.4;;;7.5;86.1
74439;BME280;62869;52.632;29.748;2022-11-06T16:19:16;1031.4;;;7.5;86.9
74439;BME280;62869;52.632;29.748;2022-11-06T16:34:18;1031.3;;;7.6;86.9
74439;BME280;62869;52.632;29.748;2022-11-06T16:39:08;1031.3;;;7.6;86
74439;BME280;62869;52.632;29.748;2022-11-06T16:44:17;1031.4;;;7.5;86.3
74439;BME280;62869;52.632;29.748;2022-11-06T16:49:09;1031.4;;;7.4;87
74439;BME280;62869;52.632;29.748;2022-11-06T16:54:11;1031.4;;;7.4;87.4
74439;BME280;62869;52.632;29.748;2022-11-06T16:58:59;1031.4;;;7.4;86.6
74439;BME280;62869;52.632;29.748;2022-11-06T17:03:58;1031.4;;;7.3;86.6
74439;BME280;62869;52.632;29.748;2022-11-06T17:08:58;1031.4;;;7.3;87.4
74439;BME280;62869;52.632;29.748;2022-11-06T17:14:13;1031.4;;;7.3;87.5
74439;BME280;62869;52.632;29.748;2022-11-06T17:19:09;1031.4;;;7.3;87.5
74439;BME280;62869;52.632;29.748;2022-11-06T17:23:57;1031.3;;;7.3;87.4
74439;BME280;62869;52.632;29.748;2022-11-06T17:48:58;1031.3;;;7.3;87.4
74439;BME280;62869;52.632;29.748;2022-11-06T17:54:09;1031.1;;;7.4;87.1
74439;BME280;62869;52.632;29.748;2022-11-06T17:59:21;1031.2;;;7.5;86.8
74439;BME280;62869;52.632;29.748;2022-11-06T18:03:57;1031.2;;;7.4;87.3
74439;BME280;62869;52.632;29.748;2022-11-06T18:08:58;1031.2;;;7.4;87.4
74439;BME280;62869;52.632;29.748;2022-11-06T18:13:57;1031.2;;;7.4;87.8
74439;BME280;62869;52.632;29.748;2022-11-06T18:19:33;1031.2;;;7.4;87.9
74439;BME280;62869;52.632;29.748;2022-11-06T18:23:57;1031.2;;;7.5;88.4
74439;BME280;62869;52.632;29.748;2022-11-06T18:29:05;1031.3;;;7.4;86.2
74439;BME280;62869;52.632;29.748;2022-11-06T18:34:09;1031.3;;;7.4;87.3
74439;BME280;62869;52.632;29.748;2022-11-06T18:48:57;1031.4;;;7.3;87.6
74439;BME280;62869;52.632;29.748;2022-11-06T18:54:33;1031.3;;;7;87.9
74439;BME280;62869;52.632;29.748;2022-11-06T18:59:12;1031.4;;;7.1;89.9
74439;BME280;62869;52.632;29.748;2022-11-06T19:04:09;1031.4;;;7.3;89.3
74439;BME280;62869;52.632;29.748;2022-11-06T19:09:09;1031.4;;;7.5;88.7
74439;BME280;62869;52.632;29.748;2022-11-06T19:14:33;1031.5;;;7.5;88
74439;BME280;62869;52.632;29.748;2022-11-06T19:19:05;1031.4;;;7.6;88.3
74439;BME280;62869;52.632;29.748;2022-11-06T19:23:58;1031.4;;;7.7;87.6
74439;BME280;62869;52.632;29.748;2022-11-06T19:29:07;1031.4;;;7.6;87.3
74439;BME280;62869;52.632;29.748;2022-11-06T19:33:58;1031.4;;;7.6;87.5
74439;BME280;62869;52.632;29.748;2022-11-06T19:38:57;1031.5;;;7.7;87.1
74439;BME280;62869;52.632;29.748;2022-11-06T19:43:57;1031.5;;;7.6;87.2
74439;BME280;62869;52.632;29.748;2022-11-06T19:49:09;1031.4;;;7.6;87.6
74439;BME280;62869;52.632;29.748;2022-11-06T19:53:57;1031.5;;;7.6;87.5
74439;BME280;62869;52.632;29.748;2022-11-06T19:58:57;1031.5;;;7.7;87.6
74439;BME280;62869;52.632;29.748;2022-11-06T20:03:57;1031.4;;;7.7;87.6
74439;BME280;62869;52.632;29.748;2022-11-06T20:09:05;1031.4;;;7.8;87.6
74439;BME280;62869;52.632;29.748;2022-11-06T20:13:57;1031.5;;;7.8;87.1
74439;BME280;62869;52.632;29.748;2022-11-06T20:19:19;1031.5;;;7.8;86.8
74439;BME280;62869;52.632;29.748;2022-11-06T20:23:57;1031.5;;;7.9;86.8
74439;BME280;62869;52.632;29.748;2022-11-06T20:28:57;1031.4;;;7.8;86.7
74439;BME280;62869;52.632;29.748;2022-11-06T20:34:07;1031.4;;;7.9;86.7
74439;BME280;62869;52.632;29.748;2022-11-06T20:39:09;1031.4;;;7.9;86.2
74439;BME280;62869;52.632;29.748;2022-11-06T20:44:10;1031.4;;;7.9;86.4
74439;BME280;62869;52.632;29.748;2022-11-06T20:48:57;1031.4;;;7.9;86.3
74439;BME280;62869;52.632;29.748;2022-11-06T20:54:07;1031.4;;;7.8;86.4
74439;BME280;62869;52.632;29.748;2022-11-06T20:58:57;1031.5;;;7.7;87.3
74439;BME280;62869;52.632;29.748;2022-11-06T21:04:17;1031.5;;;7.8;87.6
74439;BME280;62869;52.632;29.748;2022-11-06T21:09:19;1031.4;;;7.8;86.9
74439;BME280;62869;52.632;29.748;2022-11-06T21:14:23;1031.4;;;7.8;86.9
74439;BME280;62869;52.632;29.748;2022-11-06T21:19:19;1031.4;;;7.9;86.8
74439;BME280;62869;52.632;29.748;2022-11-06T21:23:58;1031.4;;;7.9;86.6
74439;BME280;62869;52.632;29.748;2022-11-06T21:29:09;1031.4;;;7.8;86.9
74439;BME280;62869;52.632;29.748;2022-11-06T21:33:58;1031.4;;;7.8;86.7
74439;BME280;62869;52.632;29.748;2022-11-06T21:39:09;1031.4;;;7.7;87.2
74439;BME280;62869;52.632;29.748;2022-11-06T21:44:10;1031.4;;;7.8;87.6
74439;BME280;62869;52.632;29.748;2022-11-06T21:48:57;1031.4;;;7.8;87.1
74439;BME280;62869;52.632;29.748;2022-11-06T21:53:58;1031.4;;;7.9;87.4
74439;BME280;62869;52.632;29.748;2022-11-06T21:59:06;1031.4;;;7.9;87
74439;BME280;62869;52.632;29.748;2022-11-06T22:03:53;1031.3;;;7.9;87.2
74439;BME280;62869;52.632;29.748;2022-11-06T22:08:54;1031.2;;;7.9;86.9
74439;BME280;62869;52.632;29.748;2022-11-06T22:14:02;1031.2;;;7.9;86.7
74439;BME280;62869;52.632;29.748;2022-11-06T22:18:53;1031.3;;;7.8;87.3
74439;BME280;62869;52.632;29.748;2022-11-06T22:24:15;1031.3;;;7.8;86.9
74439;BME280;62869;52.632;29.748;2022-11-06T22:29:04;1031.2;;;7.9;86.8
74439;BME280;62869;52.632;29.748;2022-11-06T22:34:03;1031.2;;;7.9;87
74439;BME280;62869;52.632;29.748;2022-11-06T22:39:04;1031.2;;;7.9;87.4
74439;BME280;62869;52.632;29.748;2022-11-06T22:43:56;1031.2;;;7.9;87.2
74439;BME280;62869;52.632;29.748;2022-11-06T22:49:11;1031.2;;;7.9;86.9
74439;BME280;62869;52.632;29.748;2022-11-06T22:53:54;1031.3;;;7.9;87.5
74439;BME280;62869;52.632;29.748;2022-11-06T22:59:13;1031.2;;;7.9;86.9
74439;BME280;62869;52.632;29.748;2022-11-06T23:03:53;1031.3;;;7.9;87.5
74439;BME280;62869;52.632;29.748;2022-11-06T23:09:15;1031.3;;;7.9;87.2
74439;BME280;62869;52.632;29.748;2022-11-06T23:14:05;1031.3;;;7.9;87.1
74439;BME280;62869;52.632;29.748;2022-11-06T23:18:53;1031.2;;;7.9;87.2
74439;BME280;62869;52.632;29.748;2022-11-06T23:24:04;1031.2;;;7.9;86.8
74439;BME280;62869;52.632;29.748;2022-11-06T23:28:54;1031.1;;;7.9;87.1
74439;BME280;62869;52.632;29.748;2022-11-06T23:33:53;1031;;;7.9;87.1
74439;BME280;62869;52.632;29.748;2022-11-06T23:38:53;1031;;;7.9;87
74439;BME280;62869;52.632;29.748;2022-11-06T23:43:54;1030.9;;;7.9;86.7
74439;BME280;62869;52.632;29.748;2022-11-06T23:48:53;1030.9;;;7.9;86.6
74439;BME280;62869;52.632;29.748;2022-11-06T23:54:01;1030.9;;;7.9;86.7
74439;BME280;62869;52.632;29.748;2022-11-06T23:59:05;1030.9;;;8;86.6
